sensor_id;sensor_type;location;lat;lon;timestamp;temperature;humidity
26721;HTU21D;15950;51.112;6.966;2023-11-21T00:00:23;9.94;87.04
26721;HTU21D;15950;51.112;6.966;2023-11-21T00:03:23;9.95;86.25
26721;HTU21D;15950;51.112;6.966;2023-11-21T00:06:23;9.91;85.91
26721;HTU21D;15950;51.112;6.966;2023-11-21T00:09:23;9.46;86.61
26721;HTU21D;15950;51.112;6.966;2023-11-21T00:12:23;9.64;86.70
26721;HTU21D;15950;51.112;6.966;2023-11-21T00:15:23;9.62;85.86
26721;HTU21D;15950;51.112;6.966;2023-11-21T00:18:23;9.71;85.85
26721;HTU21D;15950;51.112;6.966;2023-11-21T00:21:23;9.79;85.26
26721;HTU21D;15950;51.112;6.966;2023-11-21T00:24:23;9.72;85.05
26721;HTU21D;15950;51.112;6.966;2023-11-21T00:27:23;9.67;84.62
26721;HTU21D;15950;51.112;6.966;2023-11-21T00:30:23;9.43;85.58
26721;HTU21D;15950;51.112;6.966;2023-11-21T00:33:23;9.32;86.26
26721;HTU21D;15950;51.112;6.966;2023-11-21T00:36:23;9.43;85.45
26721;HTU21D;15950;51.112;6.966;2023-11-21T00:39:23;9.17;85.77
26721;HTU21D;15950;51.112;6.966;2023-11-21T00:42:23;9.30;85.73
26721;HTU21D;15950;51.112;6.966;2023-11-21T00:45:23;9.38;85.49
26721;HTU21D;15950;51.112;6.966;2023-11-21T00:48:23;8.83;85.80
26721;HTU21D;15950;51.112;6.966;2023-11-21T00:51:23;8.49;88.32
26721;HTU21D;15950;51.112;6.966;2023-11-21T00:54:22;8.69;88.53
26721;HTU21D;15950;51.112;6.966;2023-11-21T00:57:22;8.77;87.68
26721;HTU21D;15950;51.112;6.966;2023-11-21T01:00:22;8.82;87.35
26721;HTU21D;15950;51.112;6.966;2023-11-21T01:03:23;8.73;87.10
26721;HTU21D;15950;51.112;6.966;2023-11-21T01:06:22;8.57;87.54
26721;HTU21D;15950;51.112;6.966;2023-11-21T01:09:23;8.76;87.68
26721;HTU21D;15950;51.112;6.966;2023-11-21T01:12:22;8.82;87.19
26721;HTU21D;15950;51.112;6.966;2023-11-21T01:15:23;8.72;87.01
26721;HTU21D;15950;51.112;6.966;2023-11-21T01:18:22;8.56;88.42
26721;HTU21D;15950;51.112;6.966;2023-11-21T01:21:22;8.17;90.22
26721;HTU21D;15950;51.112;6.966;2023-11-21T01:24:22;8.42;90.18
26721;HTU21D;15950;51.112;6.966;2023-11-21T01:27:22;8.64;88.95
26721;HTU21D;15950;51.112;6.966;2023-11-21T01:30:22;8.72;88.31
26721;HTU21D;15950;51.112;6.966;2023-11-21T01:33:23;8.77;87.77
26721;HTU21D;15950;51.112;6.966;2023-11-21T01:36:22;8.79;87.67
26721;HTU21D;15950;51.112;6.966;2023-11-21T01:39:22;8.64;86.99
26721;HTU21D;15950;51.112;6.966;2023-11-21T01:42:23;8.49;87.42
26721;HTU21D;15950;51.112;6.966;2023-11-21T01:45:23;8.63;87.38
26721;HTU21D;15950;51.112;6.966;2023-11-21T01:48:23;8.43;87.34
26721;HTU21D;15950;51.112;6.966;2023-11-21T01:51:22;8.40;87.89
26721;HTU21D;15950;51.112;6.966;2023-11-21T01:54:22;8.39;88.34
26721;HTU21D;15950;51.112;6.966;2023-11-21T01:57:22;8.61;87.37
26721;HTU21D;15950;51.112;6.966;2023-11-21T02:00:23;8.63;86.96
26721;HTU21D;15950;51.112;6.966;2023-11-21T02:03:22;8.68;86.96
26721;HTU21D;15950;51.112;6.966;2023-11-21T02:06:22;8.58;87.25
26721;HTU21D;15950;51.112;6.966;2023-11-21T02:09:26;8.45;87.65
26721;HTU21D;15950;51.112;6.966;2023-11-21T02:12:22;8.70;87.25
26721;HTU21D;15950;51.112;6.966;2023-11-21T02:15:22;8.77;87.09
26721;HTU21D;15950;51.112;6.966;2023-11-21T02:18:22;8.68;87.34
26721;HTU21D;15950;51.112;6.966;2023-11-21T02:21:24;8.75;87.28
26721;HTU21D;15950;51.112;6.966;2023-11-21T02:24:23;8.58;87.34
26721;HTU21D;15950;51.112;6.966;2023-11-21T02:27:24;8.53;88.33
26721;HTU21D;15950;51.112;6.966;2023-11-21T02:30:23;8.28;89.00
26721;HTU21D;15950;51.112;6.966;2023-11-21T02:33:22;8.37;88.80
26721;HTU21D;15950;51.112;6.966;2023-11-21T02:36:22;8.37;89.26
26721;HTU21D;15950;51.112;6.966;2023-11-21T02:39:22;8.45;89.02
26721;HTU21D;15950;51.112;6.966;2023-11-21T02:42:22;8.53;88.73
26721;HTU21D;15950;51.112;6.966;2023-11-21T02:45:22;8.57;88.21
26721;HTU21D;15950;51.112;6.966;2023-11-21T02:48:22;8.71;87.98
26721;HTU21D;15950;51.112;6.966;2023-11-21T02:51:22;8.63;88.13
26721;HTU21D;15950;51.112;6.966;2023-11-21T02:54:22;8.76;87.80
26721;HTU21D;15950;51.112;6.966;2023-11-21T02:57:22;8.85;87.48
26721;HTU21D;15950;51.112;6.966;2023-11-21T03:00:22;8.77;87.80
26721;HTU21D;15950;51.112;6.966;2023-11-21T03:03:22;8.86;87.58
26721;HTU21D;15950;51.112;6.966;2023-11-21T03:06:23;8.84;87.64
26721;HTU21D;15950;51.112;6.966;2023-11-21T03:09:22;8.84;87.78
26721;HTU21D;15950;51.112;6.966;2023-11-21T03:12:22;8.87;87.78
26721;HTU21D;15950;51.112;6.966;2023-11-21T03:15:22;8.75;87.74
26721;HTU21D;15950;51.112;6.966;2023-11-21T03:18:22;8.61;88.49
26721;HTU21D;15950;51.112;6.966;2023-11-21T03:21:22;8.51;88.93
26721;HTU21D;15950;51.112;6.966;2023-11-21T03:24:22;8.46;89.23
26721;HTU21D;15950;51.112;6.966;2023-11-21T03:27:22;8.43;89.83
26721;HTU21D;15950;51.112;6.966;2023-11-21T03:30:22;8.51;89.83
26721;HTU21D;15950;51.112;6.966;2023-11-21T03:33:22;8.62;89.78
26721;HTU21D;15950;51.112;6.966;2023-11-21T03:36:22;8.70;89.34
26721;HTU21D;15950;51.112;6.966;2023-11-21T03:39:23;8.81;88.70
26721;HTU21D;15950;51.112;6.966;2023-11-21T03:42:22;8.85;88.35
26721;HTU21D;15950;51.112;6.966;2023-11-21T03:45:22;8.85;88.76
26721;HTU21D;15950;51.112;6.966;2023-11-21T03:48:22;8.79;88.99
26721;HTU21D;15950;51.112;6.966;2023-11-21T03:51:22;8.93;88.34
26721;HTU21D;15950;51.112;6.966;2023-11-21T03:54:22;8.97;87.80
26721;HTU21D;15950;51.112;6.966;2023-11-21T03:57:22;9.01;87.35
26721;HTU21D;15950;51.112;6.966;2023-11-21T04:00:22;8.87;88.54
26721;HTU21D;15950;51.112;6.966;2023-11-21T04:03:22;8.99;88.14
26721;HTU21D;15950;51.112;6.966;2023-11-21T04:06:22;9.07;87.79
26721;HTU21D;15950;51.112;6.966;2023-11-21T04:09:23;9.06;88.22
26721;HTU21D;15950;51.112;6.966;2023-11-21T04:12:22;8.87;88.73
26721;HTU21D;15950;51.112;6.966;2023-11-21T04:15:22;9.06;88.35
26721;HTU21D;15950;51.112;6.966;2023-11-21T04:18:22;9.01;87.96
26721;HTU21D;15950;51.112;6.966;2023-11-21T04:21:22;8.96;88.64
26721;HTU21D;15950;51.112;6.966;2023-11-21T04:24:22;8.97;88.32
26721;HTU21D;15950;51.112;6.966;2023-11-21T04:27:22;8.77;89.29
26721;HTU21D;15950;51.112;6.966;2023-11-21T04:30:22;8.75;89.63
26721;HTU21D;15950;51.112;6.966;2023-11-21T04:33:22;8.71;89.92
26721;HTU21D;15950;51.112;6.966;2023-11-21T04:36:22;8.60;90.16
26721;HTU21D;15950;51.112;6.966;2023-11-21T04:39:22;8.51;90.95
26721;HTU21D;15950;51.112;6.966;2023-11-21T04:42:22;8.52;91.34
26721;HTU21D;15950;51.112;6.966;2023-11-21T04:45:23;8.71;90.41
26721;HTU21D;15950;51.112;6.966;2023-11-21T04:48:22;8.88;89.54
26721;HTU21D;15950;51.112;6.966;2023-11-21T04:51:22;8.98;88.99
26721;HTU21D;15950;51.112;6.966;2023-11-21T04:54:22;9.00;88.89
26721;HTU21D;15950;51.112;6.966;2023-11-21T04:57:22;8.96;88.93
26721;HTU21D;15950;51.112;6.966;2023-11-21T05:00:22;8.94;88.92
26721;HTU21D;15950;51.112;6.966;2023-11-21T05:03:22;9.05;88.26
26721;HTU21D;15950;51.112;6.966;2023-11-21T05:06:22;9.09;88.06
26721;HTU21D;15950;51.112;6.966;2023-11-21T05:09:22;9.01;88.45
26721;HTU21D;15950;51.112;6.966;2023-11-21T05:12:23;9.08;88.30
26721;HTU21D;15950;51.112;6.966;2023-11-21T05:15:22;8.69;89.01
26721;HTU21D;15950;51.112;6.966;2023-11-21T05:18:22;8.69;89.67
26721;HTU21D;15950;51.112;6.966;2023-11-21T05:21:22;8.74;89.68
26721;HTU21D;15950;51.112;6.966;2023-11-21T05:24:22;8.90;89.09
26721;HTU21D;15950;51.112;6.966;2023-11-21T05:27:22;8.80;89.35
26721;HTU21D;15950;51.112;6.966;2023-11-21T05:30:22;8.66;89.96
26721;HTU21D;15950;51.112;6.966;2023-11-21T05:33:22;8.53;91.04
26721;HTU21D;15950;51.112;6.966;2023-11-21T05:36:22;8.65;90.66
26721;HTU21D;15950;51.112;6.966;2023-11-21T05:39:22;8.75;89.83
26721;HTU21D;15950;51.112;6.966;2023-11-21T05:42:23;8.85;88.93
26721;HTU21D;15950;51.112;6.966;2023-11-21T05:45:22;8.84;88.55
26721;HTU21D;15950;51.112;6.966;2023-11-21T05:48:22;8.78;89.15
26721;HTU21D;15950;51.112;6.966;2023-11-21T05:51:22;8.92;88.74
26721;HTU21D;15950;51.112;6.966;2023-11-21T05:54:22;8.87;88.82
26721;HTU21D;15950;51.112;6.966;2023-11-21T05:57:22;9.03;88.50
26721;HTU21D;15950;51.112;6.966;2023-11-21T06:00:22;9.27;87.17
26721;HTU21D;15950;51.112;6.966;2023-11-21T06:03:22;9.43;86.13
26721;HTU21D;15950;51.112;6.966;2023-11-21T06:06:22;9.42;85.80
26721;HTU21D;15950;51.112;6.966;2023-11-21T06:09:22;9.33;86.05
26721;HTU21D;15950;51.112;6.966;2023-11-21T06:12:22;9.28;86.51
26721;HTU21D;15950;51.112;6.966;2023-11-21T06:15:22;8.79;88.70
26721;HTU21D;15950;51.112;6.966;2023-11-21T06:18:22;8.60;89.99
26721;HTU21D;15950;51.112;6.966;2023-11-21T06:21:22;8.76;89.76
26721;HTU21D;15950;51.112;6.966;2023-11-21T06:24:22;8.65;90.53
26721;HTU21D;15950;51.112;6.966;2023-11-21T06:27:22;8.74;89.75
26721;HTU21D;15950;51.112;6.966;2023-11-21T06:30:22;8.62;90.27
26721;HTU21D;15950;51.112;6.966;2023-11-21T06:33:22;8.73;89.88
26721;HTU21D;15950;51.112;6.966;2023-11-21T06:36:22;8.87;89.12
26721;HTU21D;15950;51.112;6.966;2023-11-21T06:39:22;8.92;89.02
26721;HTU21D;15950;51.112;6.966;2023-11-21T06:42:22;8.93;88.97
26721;HTU21D;15950;51.112;6.966;2023-11-21T06:45:22;8.93;89.07
26721;HTU21D;15950;51.112;6.966;2023-11-21T06:48:22;8.62;90.12
26721;HTU21D;15950;51.112;6.966;2023-11-21T06:51:22;8.72;89.83
26721;HTU21D;15950;51.112;6.966;2023-11-21T06:54:22;8.84;89.39
26721;HTU21D;15950;51.112;6.966;2023-11-21T06:57:25;8.80;89.18
26721;HTU21D;15950;51.112;6.966;2023-11-21T07:00:22;8.80;89.52
26721;HTU21D;15950;51.112;6.966;2023-11-21T07:03:22;8.95;88.94
26721;HTU21D;15950;51.112;6.966;2023-11-21T07:06:22;8.95;88.95
26721;HTU21D;15950;51.112;6.966;2023-11-21T07:09:22;8.85;89.50
26721;HTU21D;15950;51.112;6.966;2023-11-21T07:12:22;8.79;90.57
26721;HTU21D;15950;51.112;6.966;2023-11-21T07:15:22;8.75;90.63
26721;HTU21D;15950;51.112;6.966;2023-11-21T07:18:22;8.68;91.27
26721;HTU21D;15950;51.112;6.966;2023-11-21T07:21:22;8.54;92.67
26721;HTU21D;15950;51.112;6.966;2023-11-21T07:24:22;8.69;91.99
26721;HTU21D;15950;51.112;6.966;2023-11-21T07:27:22;8.79;91.82
26721;HTU21D;15950;51.112;6.966;2023-11-21T07:30:22;8.88;91.11
26721;HTU21D;15950;51.112;6.966;2023-11-21T07:33:22;8.72;92.35
26721;HTU21D;15950;51.112;6.966;2023-11-21T07:36:22;8.76;92.55
26721;HTU21D;15950;51.112;6.966;2023-11-21T07:39:22;8.88;91.88
26721;HTU21D;15950;51.112;6.966;2023-11-21T07:42:23;8.99;91.34
26721;HTU21D;15950;51.112;6.966;2023-11-21T07:45:22;8.88;92.45
26721;HTU21D;15950;51.112;6.966;2023-11-21T07:48:22;8.80;93.42
26721;HTU21D;15950;51.112;6.966;2023-11-21T07:51:22;8.84;93.40
26721;HTU21D;15950;51.112;6.966;2023-11-21T07:54:22;8.89;93.04
26721;HTU21D;15950;51.112;6.966;2023-11-21T07:57:22;8.96;92.98
26721;HTU21D;15950;51.112;6.966;2023-11-21T08:00:22;9.03;92.64
26721;HTU21D;15950;51.112;6.966;2023-11-21T08:03:22;9.01;92.98
26721;HTU21D;15950;51.112;6.966;2023-11-21T08:06:23;8.97;93.14
26721;HTU21D;15950;51.112;6.966;2023-11-21T08:09:22;8.79;94.36
26721;HTU21D;15950;51.112;6.966;2023-11-21T08:12:22;8.90;94.00
26721;HTU21D;15950;51.112;6.966;2023-11-21T08:15:22;9.06;93.48
26721;HTU21D;15950;51.112;6.966;2023-11-21T08:18:22;9.23;92.19
26721;HTU21D;15950;51.112;6.966;2023-11-21T08:21:22;9.23;92.40
26721;HTU21D;15950;51.112;6.966;2023-11-21T08:24:22;9.15;92.59
26721;HTU21D;15950;51.112;6.966;2023-11-21T08:27:22;8.97;93.95
26721;HTU21D;15950;51.112;6.966;2023-11-21T08:30:22;8.87;94.91
26721;HTU21D;15950;51.112;6.966;2023-11-21T08:33:22;8.85;95.36
26721;HTU21D;15950;51.112;6.966;2023-11-21T08:36:22;8.94;95.41
26721;HTU21D;15950;51.112;6.966;2023-11-21T08:39:22;8.88;95.68
26721;HTU21D;15950;51.112;6.966;2023-11-21T08:42:22;8.88;95.85
26721;HTU21D;15950;51.112;6.966;2023-11-21T08:45:22;8.97;95.59
26721;HTU21D;15950;51.112;6.966;2023-11-21T08:48:22;8.99;95.46
26721;HTU21D;15950;51.112;6.966;2023-11-21T08:51:22;9.18;94.72
26721;HTU21D;15950;51.112;6.966;2023-11-21T08:54:22;9.26;93.94
26721;HTU21D;15950;51.112;6.966;2023-11-21T08:57:23;9.22;94.40
26721;HTU21D;15950;51.112;6.966;2023-11-21T09:00:22;9.18;94.80
26721;HTU21D;15950;51.112;6.966;2023-11-21T09:03:22;9.26;94.34
26721;HTU21D;15950;51.112;6.966;2023-11-21T09:06:22;9.43;93.87
26721;HTU21D;15950;51.112;6.966;2023-11-21T09:09:22;9.37;94.31
26721;HTU21D;15950;51.112;6.966;2023-11-21T09:12:22;9.40;93.97
26721;HTU21D;15950;51.112;6.966;2023-11-21T09:15:22;9.37;94.64
26721;HTU21D;15950;51.112;6.966;2023-11-21T09:18:22;9.36;94.55
26721;HTU21D;15950;51.112;6.966;2023-11-21T09:21:22;9.22;95.40
26721;HTU21D;15950;51.112;6.966;2023-11-21T09:24:22;9.28;95.24
26721;HTU21D;15950;51.112;6.966;2023-11-21T09:27:22;9.46;94.55
26721;HTU21D;15950;51.112;6.966;2023-11-21T09:30:22;9.43;94.72
26721;HTU21D;15950;51.112;6.966;2023-11-21T09:33:22;9.44;94.75
26721;HTU21D;15950;51.112;6.966;2023-11-21T09:36:22;9.41;95.14
26721;HTU21D;15950;51.112;6.966;2023-11-21T09:39:22;9.67;93.75
26721;HTU21D;15950;51.112;6.966;2023-11-21T09:45:28;9.59;94.43
26721;HTU21D;15950;51.112;6.966;2023-11-21T09:48:24;9.57;94.23
26721;HTU21D;15950;51.112;6.966;2023-11-21T09:51:24;9.51;94.97
26721;HTU21D;15950;51.112;6.966;2023-11-21T09:54:22;9.56;94.98
26721;HTU21D;15950;51.112;6.966;2023-11-21T09:57:23;9.64;94.25
26721;HTU21D;15950;51.112;6.966;2023-11-21T10:00:22;9.65;94.07
26721;HTU21D;15950;51.112;6.966;2023-11-21T10:03:22;9.55;94.56
26721;HTU21D;15950;51.112;6.966;2023-11-21T10:06:22;9.69;93.63
26721;HTU21D;15950;51.112;6.966;2023-11-21T10:09:23;9.67;94.07
26721;HTU21D;15950;51.112;6.966;2023-11-21T10:12:24;9.68;93.96
26721;HTU21D;15950;51.112;6.966;2023-11-21T10:15:23;9.73;93.49
26721;HTU21D;15950;51.112;6.966;2023-11-21T10:18:22;9.67;93.78
26721;HTU21D;15950;51.112;6.966;2023-11-21T10:21:22;9.56;94.46
26721;HTU21D;15950;51.112;6.966;2023-11-21T10:24:22;9.69;93.64
26721;HTU21D;15950;51.112;6.966;2023-11-21T10:27:22;9.77;93.39
26721;HTU21D;15950;51.112;6.966;2023-11-21T10:30:22;9.49;93.79
26721;HTU21D;15950;51.112;6.966;2023-11-21T10:33:27;9.67;93.92
26721;HTU21D;15950;51.112;6.966;2023-11-21T10:36:26;9.51;94.36
26721;HTU21D;15950;51.112;6.966;2023-11-21T10:39:22;9.70;94.07
26721;HTU21D;15950;51.112;6.966;2023-11-21T10:42:22;9.65;94.31
26721;HTU21D;15950;51.112;6.966;2023-11-21T10:45:23;9.81;93.82
26721;HTU21D;15950;51.112;6.966;2023-11-21T10:48:22;9.85;93.38
26721;HTU21D;15950;51.112;6.966;2023-11-21T10:51:22;9.71;93.67
26721;HTU21D;15950;51.112;6.966;2023-11-21T10:54:23;9.80;93.60
26721;HTU21D;15950;51.112;6.966;2023-11-21T10:57:23;9.75;93.65
26721;HTU21D;15950;51.112;6.966;2023-11-21T11:00:22;9.57;93.98
26721;HTU21D;15950;51.112;6.966;2023-11-21T11:03:22;9.76;94.61
26721;HTU21D;15950;51.112;6.966;2023-11-21T11:06:24;9.51;94.59
26721;HTU21D;15950;51.112;6.966;2023-11-21T11:09:22;9.56;94.90
26721;HTU21D;15950;51.112;6.966;2023-11-21T11:12:23;9.71;94.39
26721;HTU21D;15950;51.112;6.966;2023-11-21T11:15:23;9.78;94.39
26721;HTU21D;15950;51.112;6.966;2023-11-21T11:18:22;9.63;94.62
26721;HTU21D;15950;51.112;6.966;2023-11-21T11:33:50;9.68;94.36
26721;HTU21D;15950;51.112;6.966;2023-11-21T11:42:22;9.62;95.65
26721;HTU21D;15950;51.112;6.966;2023-11-21T11:45:22;9.64;95.90
26721;HTU21D;15950;51.112;6.966;2023-11-21T11:48:22;9.78;95.13
26721;HTU21D;15950;51.112;6.966;2023-11-21T11:51:22;9.57;95.96
26721;HTU21D;15950;51.112;6.966;2023-11-21T11:54:34;9.59;96.14
26721;HTU21D;15950;51.112;6.966;2023-11-21T11:57:25;9.64;96.16
26721;HTU21D;15950;51.112;6.966;2023-11-21T12:03:25;9.68;95.71
26721;HTU21D;15950;51.112;6.966;2023-11-21T12:09:23;9.73;95.57
26721;HTU21D;15950;51.112;6.966;2023-11-21T12:12:22;9.65;95.68
26721;HTU21D;15950;51.112;6.966;2023-11-21T12:15:23;9.80;95.08
26721;HTU21D;15950;51.112;6.966;2023-11-21T12:18:22;9.86;94.40
26721;HTU21D;15950;51.112;6.966;2023-11-21T12:21:22;9.80;94.71
26721;HTU21D;15950;51.112;6.966;2023-11-21T12:24:22;9.88;94.32
26721;HTU21D;15950;51.112;6.966;2023-11-21T12:27:22;9.89;94.23
26721;HTU21D;15950;51.112;6.966;2023-11-21T12:30:25;10.06;93.60
26721;HTU21D;15950;51.112;6.966;2023-11-21T12:33:22;9.81;93.56
26721;HTU21D;15950;51.112;6.966;2023-11-21T12:36:22;10.00;93.52
26721;HTU21D;15950;51.112;6.966;2023-11-21T12:39:22;9.93;93.60
26721;HTU21D;15950;51.112;6.966;2023-11-21T12:42:22;10.05;93.56
26721;HTU21D;15950;51.112;6.966;2023-11-21T12:45:23;9.97;93.44
26721;HTU21D;15950;51.112;6.966;2023-11-21T12:48:23;9.90;93.36
26721;HTU21D;15950;51.112;6.966;2023-11-21T12:51:22;9.87;93.64
26721;HTU21D;15950;51.112;6.966;2023-11-21T12:54:22;9.83;92.88
26721;HTU21D;15950;51.112;6.966;2023-11-21T12:57:25;9.89;92.74
26721;HTU21D;15950;51.112;6.966;2023-11-21T13:00:28;10.14;91.96
26721;HTU21D;15950;51.112;6.966;2023-11-21T13:03:22;10.05;92.14
26721;HTU21D;15950;51.112;6.966;2023-11-21T13:06:22;10.01;91.82
26721;HTU21D;15950;51.112;6.966;2023-11-21T13:09:22;10.14;91.85
26721;HTU21D;15950;51.112;6.966;2023-11-21T13:12:25;10.23;91.92
26721;HTU21D;15950;51.112;6.966;2023-11-21T13:15:22;10.15;91.43
26721;HTU21D;15950;51.112;6.966;2023-11-21T13:18:26;9.95;92.12
26721;HTU21D;15950;51.112;6.966;2023-11-21T13:21:22;9.96;92.33
26721;HTU21D;15950;51.112;6.966;2023-11-21T13:24:22;9.94;91.72
26721;HTU21D;15950;51.112;6.966;2023-11-21T13:27:22;10.17;91.46
26721;HTU21D;15950;51.112;6.966;2023-11-21T13:30:23;10.30;91.54
26721;HTU21D;15950;51.112;6.966;2023-11-21T13:33:22;10.04;91.98
26721;HTU21D;15950;51.112;6.966;2023-11-21T13:36:25;10.07;92.43
26721;HTU21D;15950;51.112;6.966;2023-11-21T13:39:22;10.03;92.61
26721;HTU21D;15950;51.112;6.966;2023-11-21T13:42:22;9.88;92.90
26721;HTU21D;15950;51.112;6.966;2023-11-21T13:45:22;9.97;92.85
26721;HTU21D;15950;51.112;6.966;2023-11-21T13:48:22;10.02;92.75
26721;HTU21D;15950;51.112;6.966;2023-11-21T13:51:22;10.16;92.56
26721;HTU21D;15950;51.112;6.966;2023-11-21T13:54:22;10.20;92.18
26721;HTU21D;15950;51.112;6.966;2023-11-21T13:57:22;10.17;92.04
26721;HTU21D;15950;51.112;6.966;2023-11-21T14:00:22;10.25;91.72
26721;HTU21D;15950;51.112;6.966;2023-11-21T14:03:23;10.17;92.01
26721;HTU21D;15950;51.112;6.966;2023-11-21T14:06:22;10.13;91.73
26721;HTU21D;15950;51.112;6.966;2023-11-21T14:09:23;10.10;91.93
26721;HTU21D;15950;51.112;6.966;2023-11-21T14:12:22;10.17;91.90
26721;HTU21D;15950;51.112;6.966;2023-11-21T14:15:22;10.10;91.85
26721;HTU21D;15950;51.112;6.966;2023-11-21T14:18:22;10.15;91.88
26721;HTU21D;15950;51.112;6.966;2023-11-21T14:21:22;10.13;91.85
26721;HTU21D;15950;51.112;6.966;2023-11-21T14:24:22;10.23;91.77
26721;HTU21D;15950;51.112;6.966;2023-11-21T14:27:22;10.07;91.73
26721;HTU21D;15950;51.112;6.966;2023-11-21T14:30:22;10.19;91.89
26721;HTU21D;15950;51.112;6.966;2023-11-21T14:33:22;10.22;93.20
26721;HTU21D;15950;51.112;6.966;2023-11-21T14:36:22;10.14;94.04
26721;HTU21D;15950;51.112;6.966;2023-11-21T14:39:22;10.13;94.91
26721;HTU21D;15950;51.112;6.966;2023-11-21T14:42:22;10.08;94.75
26721;HTU21D;15950;51.112;6.966;2023-11-21T14:45:22;9.91;95.84
26721;HTU21D;15950;51.112;6.966;2023-11-21T14:48:22;10.00;96.03
26721;HTU21D;15950;51.112;6.966;2023-11-21T14:51:22;10.26;95.33
26721;HTU21D;15950;51.112;6.966;2023-11-21T14:54:22;10.29;94.75
26721;HTU21D;15950;51.112;6.966;2023-11-21T14:57:22;10.15;95.20
26721;HTU21D;15950;51.112;6.966;2023-11-21T15:00:22;10.03;95.57
26721;HTU21D;15950;51.112;6.966;2023-11-21T15:03:22;10.07;96.13
26721;HTU21D;15950;51.112;6.966;2023-11-21T15:06:22;10.02;96.31
26721;HTU21D;15950;51.112;6.966;2023-11-21T15:09:22;10.05;96.22
26721;HTU21D;15950;51.112;6.966;2023-11-21T15:12:22;10.00;96.06
26721;HTU21D;15950;51.112;6.966;2023-11-21T15:15:22;10.01;95.78
26721;HTU21D;15950;51.112;6.966;2023-11-21T15:18:22;9.97;95.66
26721;HTU21D;15950;51.112;6.966;2023-11-21T15:21:22;9.89;95.48
26721;HTU21D;15950;51.112;6.966;2023-11-21T15:24:22;9.96;94.94
26721;HTU21D;15950;51.112;6.966;2023-11-21T15:27:22;10.04;94.76
26721;HTU21D;15950;51.112;6.966;2023-11-21T15:30:22;9.98;94.46
26721;HTU21D;15950;51.112;6.966;2023-11-21T15:33:22;10.03;94.10
26721;HTU21D;15950;51.112;6.966;2023-11-21T15:36:22;10.04;93.51
26721;HTU21D;15950;51.112;6.966;2023-11-21T15:39:22;10.06;93.30
26721;HTU21D;15950;51.112;6.966;2023-11-21T15:42:22;10.08;93.20
26721;HTU21D;15950;51.112;6.966;2023-11-21T15:45:22;10.00;93.36
26721;HTU21D;15950;51.112;6.966;2023-11-21T15:48:22;9.97;92.40
26721;HTU21D;15950;51.112;6.966;2023-11-21T15:51:22;9.97;93.08
26721;HTU21D;15950;51.112;6.966;2023-11-21T15:54:22;10.07;93.06
26721;HTU21D;15950;51.112;6.966;2023-11-21T15:57:22;9.97;93.04
26721;HTU21D;15950;51.112;6.966;2023-11-21T16:00:22;9.87;93.21
26721;HTU21D;15950;51.112;6.966;2023-11-21T16:03:22;9.89;93.29
26721;HTU21D;15950;51.112;6.966;2023-11-21T16:06:22;9.85;93.30
26721;HTU21D;15950;51.112;6.966;2023-11-21T16:09:22;9.86;93.31
26721;HTU21D;15950;51.112;6.966;2023-11-21T16:12:22;9.84;92.92
26721;HTU21D;15950;51.112;6.966;2023-11-21T16:15:22;9.86;93.19
26721;HTU21D;15950;51.112;6.966;2023-11-21T16:18:22;9.77;92.85
26721;HTU21D;15950;51.112;6.966;2023-11-21T16:21:22;9.90;91.85
26721;HTU21D;15950;51.112;6.966;2023-11-21T16:24:22;9.76;92.56
26721;HTU21D;15950;51.112;6.966;2023-11-21T16:27:22;9.70;92.06
26721;HTU21D;15950;51.112;6.966;2023-11-21T16:30:22;9.73;91.02
26721;HTU21D;15950;51.112;6.966;2023-11-21T16:33:22;9.72;90.58
26721;HTU21D;15950;51.112;6.966;2023-11-21T16:36:22;9.54;90.05
26721;HTU21D;15950;51.112;6.966;2023-11-21T16:39:22;9.65;89.88
26721;HTU21D;15950;51.112;6.966;2023-11-21T16:42:22;9.70;89.81
26721;HTU21D;15950;51.112;6.966;2023-11-21T16:45:22;9.64;89.19
26721;HTU21D;15950;51.112;6.966;2023-11-21T16:48:22;9.78;89.38
26721;HTU21D;15950;51.112;6.966;2023-11-21T16:51:22;9.49;89.38
26721;HTU21D;15950;51.112;6.966;2023-11-21T16:54:22;9.55;89.42
26721;HTU21D;15950;51.112;6.966;2023-11-21T16:57:22;9.61;89.38
26721;HTU21D;15950;51.112;6.966;2023-11-21T17:00:22;9.56;89.39
26721;HTU21D;15950;51.112;6.966;2023-11-21T17:03:22;9.67;89.09
26721;HTU21D;15950;51.112;6.966;2023-11-21T17:06:22;9.68;89.65
26721;HTU21D;15950;51.112;6.966;2023-11-21T17:09:22;9.54;89.39
26721;HTU21D;15950;51.112;6.966;2023-11-21T17:12:22;9.39;89.57
26721;HTU21D;15950;51.112;6.966;2023-11-21T17:15:22;9.40;89.44
26721;HTU21D;15950;51.112;6.966;2023-11-21T17:18:22;9.46;89.35
26721;HTU21D;15950;51.112;6.966;2023-11-21T17:21:22;9.20;90.26
26721;HTU21D;15950;51.112;6.966;2023-11-21T17:24:22;9.16;90.55
26721;HTU21D;15950;51.112;6.966;2023-11-21T17:27:22;9.00;90.26
26721;HTU21D;15950;51.112;6.966;2023-11-21T17:30:22;8.96;89.95
26721;HTU21D;15950;51.112;6.966;2023-11-21T17:33:22;8.91;89.41
26721;HTU21D;15950;51.112;6.966;2023-11-21T17:36:22;8.83;89.23
26721;HTU21D;15950;51.112;6.966;2023-11-21T17:39:22;8.90;89.63
26721;HTU21D;15950;51.112;6.966;2023-11-21T17:42:22;8.86;89.78
26721;HTU21D;15950;51.112;6.966;2023-11-21T17:45:22;8.83;89.82
26721;HTU21D;15950;51.112;6.966;2023-11-21T17:48:22;8.87;89.57
26721;HTU21D;15950;51.112;6.966;2023-11-21T17:51:22;8.68;89.58
26721;HTU21D;15950;51.112;6.966;2023-11-21T17:54:22;8.66;89.34
26721;HTU21D;15950;51.112;6.966;2023-11-21T17:57:22;8.70;89.69
26721;HTU21D;15950;51.112;6.966;2023-11-21T18:00:22;8.72;89.18
26721;HTU21D;15950;51.112;6.966;2023-11-21T18:03:22;8.62;89.26
26721;HTU21D;15950;51.112;6.966;2023-11-21T18:06:22;8.48;89.41
26721;HTU21D;15950;51.112;6.966;2023-11-21T18:09:22;8.28;89.17
26721;HTU21D;15950;51.112;6.966;2023-11-21T18:12:22;8.31;89.31
26721;HTU21D;15950;51.112;6.966;2023-11-21T18:15:22;8.17;88.83
26721;HTU21D;15950;51.112;6.966;2023-11-21T18:18:22;8.34;88.76
26721;HTU21D;15950;51.112;6.966;2023-11-21T18:21:22;8.30;88.44
26721;HTU21D;15950;51.112;6.966;2023-11-21T18:24:22;8.41;88.54
26721;HTU21D;15950;51.112;6.966;2023-11-21T18:27:22;8.44;88.40
26721;HTU21D;15950;51.112;6.966;2023-11-21T18:30:22;8.45;86.94
26721;HTU21D;15950;51.112;6.966;2023-11-21T18:33:22;8.72;87.44
26721;HTU21D;15950;51.112;6.966;2023-11-21T18:36:22;8.42;86.43
26721;HTU21D;15950;51.112;6.966;2023-11-21T18:39:22;8.40;85.63
26721;HTU21D;15950;51.112;6.966;2023-11-21T18:42:22;8.28;85.29
26721;HTU21D;15950;51.112;6.966;2023-11-21T18:45:22;8.48;86.73
26721;HTU21D;15950;51.112;6.966;2023-11-21T18:48:22;8.12;85.96
26721;HTU21D;15950;51.112;6.966;2023-11-21T18:51:22;8.28;86.45
26721;HTU21D;15950;51.112;6.966;2023-11-21T18:54:22;8.35;86.95
26721;HTU21D;15950;51.112;6.966;2023-11-21T18:57:22;8.37;86.44
26721;HTU21D;15950;51.112;6.966;2023-11-21T19:00:22;8.26;85.81
26721;HTU21D;15950;51.112;6.966;2023-11-21T19:03:22;8.23;85.96
26721;HTU21D;15950;51.112;6.966;2023-11-21T19:06:22;8.25;86.16
26721;HTU21D;15950;51.112;6.966;2023-11-21T19:09:22;8.12;86.22
26721;HTU21D;15950;51.112;6.966;2023-11-21T19:12:22;7.98;86.57
26721;HTU21D;15950;51.112;6.966;2023-11-21T19:15:22;7.91;85.09
26721;HTU21D;15950;51.112;6.966;2023-11-21T19:18:22;7.76;85.00
26721;HTU21D;15950;51.112;6.966;2023-11-21T19:21:22;7.95;85.10